sensor_id;sensor_type;location;lat;lon;timestamp;temperature;humidity
15705;DHT22;7952;48.396;12.806;2023-09-08T00:00:07;19.90;48.30
15705;DHT22;7952;48.396;12.806;2023-09-08T00:02:34;20.00;48.40
15705;DHT22;7952;48.396;12.806;2023-09-08T00:05:00;20.00;48.40
15705;DHT22;7952;48.396;12.806;2023-09-08T00:07:26;20.00;48.40
15705;DHT22;7952;48.396;12.806;2023-09-08T00:09:52;20.00;48.40
15705;DHT22;7952;48.396;12.806;2023-09-08T00:12:18;20.00;48.40
15705;DHT22;7952;48.396;12.806;2023-09-08T00:14:44;19.90;48.30
15705;DHT22;7952;48.396;12.806;2023-09-08T00:17:09;19.90;48.30
15705;DHT22;7952;48.396;12.806;2023-09-08T00:19:35;19.80;48.30
15705;DHT22;7952;48.396;12.806;2023-09-08T00:22:01;19.70;48.40
15705;DHT22;7952;48.396;12.806;2023-09-08T00:24:28;19.60;48.40
15705;DHT22;7952;48.396;12.806;2023-09-08T00:26:53;19.50;48.50
15705;DHT22;7952;48.396;12.806;2023-09-08T00:29:19;19.50;48.60
15705;DHT22;7952;48.396;12.806;2023-09-08T00:31:45;19.40;48.50
15705;DHT22;7952;48.396;12.806;2023-09-08T00:34:11;19.40;48.60
15705;DHT22;7952;48.396;12.806;2023-09-08T00:36:37;19.40;48.70
15705;DHT22;7952;48.396;12.806;2023-09-08T00:39:02;19.40;48.80
15705;DHT22;7952;48.396;12.806;2023-09-08T00:41:29;19.40;48.80
15705;DHT22;7952;48.396;12.806;2023-09-08T00:43:54;19.40;48.80
15705;DHT22;7952;48.396;12.806;2023-09-08T00:46:20;19.40;48.80
15705;DHT22;7952;48.396;12.806;2023-09-08T00:48:46;19.50;48.90
15705;DHT22;7952;48.396;12.806;2023-09-08T00:51:12;19.50;48.90
15705;DHT22;7952;48.396;12.806;2023-09-08T00:53:38;19.50;48.80
15705;DHT22;7952;48.396;12.806;2023-09-08T00:56:04;19.60;48.90
15705;DHT22;7952;48.396;12.806;2023-09-08T00:58:30;19.60;48.90
15705;DHT22;7952;48.396;12.806;2023-09-08T01:00:56;19.60;48.80
15705;DHT22;7952;48.396;12.806;2023-09-08T01:03:25;19.60;48.80
15705;DHT22;7952;48.396;12.806;2023-09-08T01:05:51;19.60;48.80
15705;DHT22;7952;48.396;12.806;2023-09-08T01:08:18;19.60;48.80
15705;DHT22;7952;48.396;12.806;2023-09-08T01:10:45;19.60;48.90
15705;DHT22;7952;48.396;12.806;2023-09-08T01:13:11;19.60;48.90
15705;DHT22;7952;48.396;12.806;2023-09-08T01:15:37;19.60;48.90
15705;DHT22;7952;48.396;12.806;2023-09-08T01:18:03;19.60;48.90
15705;DHT22;7952;48.396;12.806;2023-09-08T01:26:45;19.60;49.10
15705;DHT22;7952;48.396;12.806;2023-09-08T01:29:13;19.60;49.20
15705;DHT22;7952;48.396;12.806;2023-09-08T01:31:40;19.50;49.10
15705;DHT22;7952;48.396;12.806;2023-09-08T01:34:05;19.50;49.20
15705;DHT22;7952;48.396;12.806;2023-09-08T01:36:34;19.50;49.20
15705;DHT22;7952;48.396;12.806;2023-09-08T01:39:00;19.50;49.30
15705;DHT22;7952;48.396;12.806;2023-09-08T01:41:26;19.50;49.40
15705;DHT22;7952;48.396;12.806;2023-09-08T01:43:52;19.50;49.40
15705;DHT22;7952;48.396;12.806;2023-09-08T01:46:18;19.50;49.40
15705;DHT22;7952;48.396;12.806;2023-09-08T01:48:44;19.50;49.50
15705;DHT22;7952;48.396;12.806;2023-09-08T01:51:10;19.50;49.50
15705;DHT22;7952;48.396;12.806;2023-09-08T01:53:35;19.50;49.60
15705;DHT22;7952;48.396;12.806;2023-09-08T01:56:01;19.50;49.70
15705;DHT22;7952;48.396;12.806;2023-09-08T01:58:27;19.50;49.70
15705;DHT22;7952;48.396;12.806;2023-09-08T02:00:54;19.50;50.30
15705;DHT22;7952;48.396;12.806;2023-09-08T02:03:19;19.40;49.60
15705;DHT22;7952;48.396;12.806;2023-09-08T02:05:45;19.40;49.60
15705;DHT22;7952;48.396;12.806;2023-09-08T02:08:11;19.40;49.70
15705;DHT22;7952;48.396;12.806;2023-09-08T02:10:39;19.40;49.70
15705;DHT22;7952;48.396;12.806;2023-09-08T02:13:05;19.40;49.70
15705;DHT22;7952;48.396;12.806;2023-09-08T02:15:34;19.40;49.80
15705;DHT22;7952;48.396;12.806;2023-09-08T02:18:00;19.40;49.80
15705;DHT22;7952;48.396;12.806;2023-09-08T02:20:25;19.30;49.70
15705;DHT22;7952;48.396;12.806;2023-09-08T02:22:54;19.30;49.70
15705;DHT22;7952;48.396;12.806;2023-09-08T02:25:20;19.30;49.70
15705;DHT22;7952;48.396;12.806;2023-09-08T02:27:48;19.30;49.80
15705;DHT22;7952;48.396;12.806;2023-09-08T02:30:14;19.30;49.80
15705;DHT22;7952;48.396;12.806;2023-09-08T02:32:40;19.30;49.90
15705;DHT22;7952;48.396;12.806;2023-09-08T02:35:08;19.20;49.80
15705;DHT22;7952;48.396;12.806;2023-09-08T02:37:34;19.20;49.80
15705;DHT22;7952;48.396;12.806;2023-09-08T02:40:00;19.20;49.80
15705;DHT22;7952;48.396;12.806;2023-09-08T02:42:26;19.20;49.90
15705;DHT22;7952;48.396;12.806;2023-09-08T02:44:52;19.10;49.80
15705;DHT22;7952;48.396;12.806;2023-09-08T02:47:17;19.10;49.80
15705;DHT22;7952;48.396;12.806;2023-09-08T02:49:44;19.10;49.90
15705;DHT22;7952;48.396;12.806;2023-09-08T02:52:09;19.10;49.90
15705;DHT22;7952;48.396;12.806;2023-09-08T02:54:35;19.10;50.00
15705;DHT22;7952;48.396;12.806;2023-09-08T02:57:01;19.10;50.10
15705;DHT22;7952;48.396;12.806;2023-09-08T02:59:27;19.10;50.10
15705;DHT22;7952;48.396;12.806;2023-09-08T03:01:53;19.10;50.10
15705;DHT22;7952;48.396;12.806;2023-09-08T03:04:18;19.10;50.10
15705;DHT22;7952;48.396;12.806;2023-09-08T03:06:44;19.10;50.10
15705;DHT22;7952;48.396;12.806;2023-09-08T03:09:10;19.10;50.10
15705;DHT22;7952;48.396;12.806;2023-09-08T03:11:35;19.00;50.00
15705;DHT22;7952;48.396;12.806;2023-09-08T03:14:02;19.00;50.00
15705;DHT22;7952;48.396;12.806;2023-09-08T03:16:28;19.00;50.00
15705;DHT22;7952;48.396;12.806;2023-09-08T03:18:54;19.00;50.10
15705;DHT22;7952;48.396;12.806;2023-09-08T03:21:20;19.00;50.10
15705;DHT22;7952;48.396;12.806;2023-09-08T03:23:45;19.00;50.70
15705;DHT22;7952;48.396;12.806;2023-09-08T03:26:12;18.90;50.00
15705;DHT22;7952;48.396;12.806;2023-09-08T03:28:38;18.90;50.00
15705;DHT22;7952;48.396;12.806;2023-09-08T03:31:07;18.90;50.10
15705;DHT22;7952;48.396;12.806;2023-09-08T03:33:33;18.90;50.10
15705;DHT22;7952;48.396;12.806;2023-09-08T03:35:58;18.90;50.20
15705;DHT22;7952;48.396;12.806;2023-09-08T03:38:24;18.90;50.10
15705;DHT22;7952;48.396;12.806;2023-09-08T03:40:50;18.90;50.10
15705;DHT22;7952;48.396;12.806;2023-09-08T03:43:16;18.90;50.20
15705;DHT22;7952;48.396;12.806;2023-09-08T03:45:42;18.90;50.20
15705;DHT22;7952;48.396;12.806;2023-09-08T03:48:08;18.90;50.20
15705;DHT22;7952;48.396;12.806;2023-09-08T03:50:34;18.90;50.20
15705;DHT22;7952;48.396;12.806;2023-09-08T03:53:06;18.90;50.30
15705;DHT22;7952;48.396;12.806;2023-09-08T03:55:32;18.80;50.20
15705;DHT22;7952;48.396;12.806;2023-09-08T03:57:57;18.80;50.20
15705;DHT22;7952;48.396;12.806;2023-09-08T04:00:23;18.80;50.20
15705;DHT22;7952;48.396;12.806;2023-09-08T04:02:49;18.80;50.20
15705;DHT22;7952;48.396;12.806;2023-09-08T04:05:16;18.70;50.20
15705;DHT22;7952;48.396;12.806;2023-09-08T04:07:43;18.70;50.20
15705;DHT22;7952;48.396;12.806;2023-09-08T04:10:09;18.70;50.20
15705;DHT22;7952;48.396;12.806;2023-09-08T04:12:35;18.60;50.20
15705;DHT22;7952;48.396;12.806;2023-09-08T04:15:00;18.60;50.20
15705;DHT22;7952;48.396;12.806;2023-09-08T04:17:26;18.50;50.80
15705;DHT22;7952;48.396;12.806;2023-09-08T04:19:52;18.50;50.30
15705;DHT22;7952;48.396;12.806;2023-09-08T04:22:17;18.40;50.30
15705;DHT22;7952;48.396;12.806;2023-09-08T04:24:43;18.40;50.40
15705;DHT22;7952;48.396;12.806;2023-09-08T04:27:09;18.40;50.50
15705;DHT22;7952;48.396;12.806;2023-09-08T04:29:36;18.30;50.40
15705;DHT22;7952;48.396;12.806;2023-09-08T04:32:02;18.40;50.50
15705;DHT22;7952;48.396;12.806;2023-09-08T04:34:39;18.30;50.40
15705;DHT22;7952;48.396;12.806;2023-09-08T04:37:05;18.30;50.40
15705;DHT22;7952;48.396;12.806;2023-09-08T04:39:32;18.30;50.40
15705;DHT22;7952;48.396;12.806;2023-09-08T04:41:58;18.20;50.30
15705;DHT22;7952;48.396;12.806;2023-09-08T04:44:24;18.20;50.40
15705;DHT22;7952;48.396;12.806;2023-09-08T04:46:51;18.20;50.50
15705;DHT22;7952;48.396;12.806;2023-09-08T04:49:17;18.20;50.50
15705;DHT22;7952;48.396;12.806;2023-09-08T04:51:43;18.10;50.50
15705;DHT22;7952;48.396;12.806;2023-09-08T04:54:12;18.10;50.50
15705;DHT22;7952;48.396;12.806;2023-09-08T04:56:41;18.20;50.60
15705;DHT22;7952;48.396;12.806;2023-09-08T04:59:07;18.30;50.60
15705;DHT22;7952;48.396;12.806;2023-09-08T05:01:33;18.40;51.00
15705;DHT22;7952;48.396;12.806;2023-09-08T05:04:02;18.70;51.20
15705;DHT22;7952;48.396;12.806;2023-09-08T05:06:28;19.00;51.30
15705;DHT22;7952;48.396;12.806;2023-09-08T05:08:53;19.30;51.10
15705;DHT22;7952;48.396;12.806;2023-09-08T05:11:19;19.60;50.80
15705;DHT22;7952;48.396;12.806;2023-09-08T05:13:46;20.00;50.50
15705;DHT22;7952;48.396;12.806;2023-09-08T05:16:12;20.40;50.30
15705;DHT22;7952;48.396;12.806;2023-09-08T05:18:41;20.80;50.10
15705;DHT22;7952;48.396;12.806;2023-09-08T05:21:07;21.20;50.00
15705;DHT22;7952;48.396;12.806;2023-09-08T05:23:33;21.70;49.90
15705;DHT22;7952;48.396;12.806;2023-09-08T05:26:01;22.10;49.70
15705;DHT22;7952;48.396;12.806;2023-09-08T05:28:27;22.50;50.00
15705;DHT22;7952;48.396;12.806;2023-09-08T05:30:53;23.00;49.30
15705;DHT22;7952;48.396;12.806;2023-09-08T05:33:19;23.40;49.10
15705;DHT22;7952;48.396;12.806;2023-09-08T05:35:45;23.80;48.90
15705;DHT22;7952;48.396;12.806;2023-09-08T05:38:11;24.20;48.80
15705;DHT22;7952;48.396;12.806;2023-09-08T05:40:37;24.60;48.70
15705;DHT22;7952;48.396;12.806;2023-09-08T05:43:03;24.90;48.50
15705;DHT22;7952;48.396;12.806;2023-09-08T05:45:31;25.30;48.20
15705;DHT22;7952;48.396;12.806;2023-09-08T05:47:57;25.60;48.00
15705;DHT22;7952;48.396;12.806;2023-09-08T05:50:22;26.00;47.90
15705;DHT22;7952;48.396;12.806;2023-09-08T05:52:48;26.30;47.60
15705;DHT22;7952;48.396;12.806;2023-09-08T05:55:14;26.60;47.40
15705;DHT22;7952;48.396;12.806;2023-09-08T05:57:42;26.90;47.20
15705;DHT22;7952;48.396;12.806;2023-09-08T06:00:08;27.20;47.00
15705;DHT22;7952;48.396;12.806;2023-09-08T06:02:34;27.50;46.90
15705;DHT22;7952;48.396;12.806;2023-09-08T06:05:00;27.70;46.70
15705;DHT22;7952;48.396;12.806;2023-09-08T06:07:26;27.90;46.50
15705;DHT22;7952;48.396;12.806;2023-09-08T06:09:51;28.10;46.40
15705;DHT22;7952;48.396;12.806;2023-09-08T06:12:17;28.30;46.30
15705;DHT22;7952;48.396;12.806;2023-09-08T06:14:43;28.50;46.10
15705;DHT22;7952;48.396;12.806;2023-09-08T06:17:10;28.60;45.90
15705;DHT22;7952;48.396;12.806;2023-09-08T06:19:35;28.80;45.80
15705;DHT22;7952;48.396;12.806;2023-09-08T06:22:01;28.90;45.70
15705;DHT22;7952;48.396;12.806;2023-09-08T06:24:27;29.00;45.80
15705;DHT22;7952;48.396;12.806;2023-09-08T06:26:53;29.10;45.70
15705;DHT22;7952;48.396;12.806;2023-09-08T06:29:19;29.30;45.70
15705;DHT22;7952;48.396;12.806;2023-09-08T06:31:44;29.50;45.40
15705;DHT22;7952;48.396;12.806;2023-09-08T06:34:10;29.70;45.30
15705;DHT22;7952;48.396;12.806;2023-09-08T06:36:36;29.90;45.20
15705;DHT22;7952;48.396;12.806;2023-09-08T06:39:02;30.10;45.20
15705;DHT22;7952;48.396;12.806;2023-09-08T06:41:28;30.30;45.00
15705;DHT22;7952;48.396;12.806;2023-09-08T06:43:54;30.50;44.90
15705;DHT22;7952;48.396;12.806;2023-09-08T06:46:20;30.70;44.80
15705;DHT22;7952;48.396;12.806;2023-09-08T06:48:45;30.90;44.70
15705;DHT22;7952;48.396;12.806;2023-09-08T06:51:11;31.10;44.70
15705;DHT22;7952;48.396;12.806;2023-09-08T06:53:37;31.20;44.40
15705;DHT22;7952;48.396;12.806;2023-09-08T06:56:03;31.40;44.30
15705;DHT22;7952;48.396;12.806;2023-09-08T06:58:29;31.60;44.30
15705;DHT22;7952;48.396;12.806;2023-09-08T07:00:54;31.70;44.00
15705;DHT22;7952;48.396;12.806;2023-09-08T07:03:21;31.80;43.80
15705;DHT22;7952;48.396;12.806;2023-09-08T07:05:51;31.90;43.60
15705;DHT22;7952;48.396;12.806;2023-09-08T07:08:17;31.80;43.50
15705;DHT22;7952;48.396;12.806;2023-09-08T07:10:44;31.80;43.40
15705;DHT22;7952;48.396;12.806;2023-09-08T07:16:19;31.80;43.30
15705;DHT22;7952;48.396;12.806;2023-09-08T07:18:45;31.80;43.30
15705;DHT22;7952;48.396;12.806;2023-09-08T07:21:11;31.80;43.20
15705;DHT22;7952;48.396;12.806;2023-09-08T07:23:37;31.80;43.10
15705;DHT22;7952;48.396;12.806;2023-09-08T07:26:03;31.70;43.10
15705;DHT22;7952;48.396;12.806;2023-09-08T07:28:30;31.70;43.20
15705;DHT22;7952;48.396;12.806;2023-09-08T07:31:01;31.80;43.30
15705;DHT22;7952;48.396;12.806;2023-09-08T07:33:28;31.90;43.20
15705;DHT22;7952;48.396;12.806;2023-09-08T07:35:54;31.90;42.90
15705;DHT22;7952;48.396;12.806;2023-09-08T07:38:19;32.00;42.50
15705;DHT22;7952;48.396;12.806;2023-09-08T07:40:45;31.90;42.20
15705;DHT22;7952;48.396;12.806;2023-09-08T07:43:11;31.90;42.30
15705;DHT22;7952;48.396;12.806;2023-09-08T07:45:36;31.80;42.50
15705;DHT22;7952;48.396;12.806;2023-09-08T07:48:02;31.80;42.40
15705;DHT22;7952;48.396;12.806;2023-09-08T07:50:28;31.80;42.50
15705;DHT22;7952;48.396;12.806;2023-09-08T07:52:55;31.80;42.20
15705;DHT22;7952;48.396;12.806;2023-09-08T07:55:22;31.80;42.40
15705;DHT22;7952;48.396;12.806;2023-09-08T07:57:50;31.80;42.50
15705;DHT22;7952;48.396;12.806;2023-09-08T08:00:16;31.90;42.40
15705;DHT22;7952;48.396;12.806;2023-09-08T08:02:46;32.00;42.30
15705;DHT22;7952;48.396;12.806;2023-09-08T08:05:11;32.10;42.30
15705;DHT22;7952;48.396;12.806;2023-09-08T08:07:41;32.20;42.20
15705;DHT22;7952;48.396;12.806;2023-09-08T08:10:08;32.40;42.00
15705;DHT22;7952;48.396;12.806;2023-09-08T08:12:34;32.40;41.50
15705;DHT22;7952;48.396;12.806;2023-09-08T08:15:00;32.40;41.50
15705;DHT22;7952;48.396;12.806;2023-09-08T08:17:26;32.40;41.70
15705;DHT22;7952;48.396;12.806;2023-09-08T08:19:55;32.50;41.60
15705;DHT22;7952;48.396;12.806;2023-09-08T08:22:21;32.60;41.20
15705;DHT22;7952;48.396;12.806;2023-09-08T08:24:47;32.50;41.10
15705;DHT22;7952;48.396;12.806;2023-09-08T08:27:12;32.50;41.20
15705;DHT22;7952;48.396;12.806;2023-09-08T08:29:39;32.50;40.90
15705;DHT22;7952;48.396;12.806;2023-09-08T08:32:05;32.40;40.80
15705;DHT22;7952;48.396;12.806;2023-09-08T08:34:31;32.30;40.60
15705;DHT22;7952;48.396;12.806;2023-09-08T08:36:57;32.30;40.80
15705;DHT22;7952;48.396;12.806;2023-09-08T08:39:23;32.20;40.70
15705;DHT22;7952;48.396;12.806;2023-09-08T08:41:49;32.10;40.60
15705;DHT22;7952;48.396;12.806;2023-09-08T08:44:15;32.00;40.80
15705;DHT22;7952;48.396;12.806;2023-09-08T08:46:43;32.00;40.90
15705;DHT22;7952;48.396;12.806;2023-09-08T08:49:11;32.00;40.80
15705;DHT22;7952;48.396;12.806;2023-09-08T08:51:38;32.00;40.70
15705;DHT22;7952;48.396;12.806;2023-09-08T08:54:05;32.10;40.50
15705;DHT22;7952;48.396;12.806;2023-09-08T08:56:32;32.00;40.40
15705;DHT22;7952;48.396;12.806;2023-09-08T08:58:58;31.90;40.20
15705;DHT22;7952;48.396;12.806;2023-09-08T09:01:26;31.80;40.50
15705;DHT22;7952;48.396;12.806;2023-09-08T09:03:52;31.60;40.50
15705;DHT22;7952;48.396;12.806;2023-09-08T09:06:18;31.50;40.40
15705;DHT22;7952;48.396;12.806;2023-09-08T09:08:44;31.40;40.50
15705;DHT22;7952;48.396;12.806;2023-09-08T09:11:11;31.20;40.60
15705;DHT22;7952;48.396;12.806;2023-09-08T09:13:37;31.20;40.80
15705;DHT22;7952;48.396;12.806;2023-09-08T09:16:03;31.10;40.90
15705;DHT22;7952;48.396;12.806;2023-09-08T09:18:32;31.10;41.00
15705;DHT22;7952;48.396;12.806;2023-09-08T09:21:00;31.10;40.80
15705;DHT22;7952;48.396;12.806;2023-09-08T09:23:31;31.00;40.80
15705;DHT22;7952;48.396;12.806;2023-09-08T09:25:58;30.90;40.80
15705;DHT22;7952;48.396;12.806;2023-09-08T09:28:24;30.80;41.00
15705;DHT22;7952;48.396;12.806;2023-09-08T09:30:52;30.70;41.00
15705;DHT22;7952;48.396;12.806;2023-09-08T09:33:20;30.60;41.10
15705;DHT22;7952;48.396;12.806;2023-09-08T09:35:47;30.50;41.10
15705;DHT22;7952;48.396;12.806;2023-09-08T09:38:13;30.30;41.20
15705;DHT22;7952;48.396;12.806;2023-09-08T09:40:39;30.10;41.40
15705;DHT22;7952;48.396;12.806;2023-09-08T09:43:06;29.90;41.50
15705;DHT22;7952;48.396;12.806;2023-09-08T09:45:34;29.70;41.60
15705;DHT22;7952;48.396;12.806;2023-09-08T09:48:01;29.50;41.80
15705;DHT22;7952;48.396;12.806;2023-09-08T09:50:32;29.30;42.00
15705;DHT22;7952;48.396;12.806;2023-09-08T09:53:00;29.10;42.40
15705;DHT22;7952;48.396;12.806;2023-09-08T09:55:27;29.00;42.50
15705;DHT22;7952;48.396;12.806;2023-09-08T09:57:57;28.90;42.60
15705;DHT22;7952;48.396;12.806;2023-09-08T10:00:26;28.80;42.70
15705;DHT22;7952;48.396;12.806;2023-09-08T10:02:53;28.70;42.60
15705;DHT22;7952;48.396;12.806;2023-09-08T10:05:19;28.60;42.60
15705;DHT22;7952;48.396;12.806;2023-09-08T10:07:47;28.50;42.70
15705;DHT22;7952;48.396;12.806;2023-09-08T10:10:14;28.40;42.90
15705;DHT22;7952;48.396;12.806;2023-09-08T10:12:43;28.30;42.90
15705;DHT22;7952;48.396;12.806;2023-09-08T10:15:11;28.30;42.90
15705;DHT22;7952;48.396;12.806;2023-09-08T10:17:37;28.20;43.10
15705;DHT22;7952;48.396;12.806;2023-09-08T10:20:05;28.20;43.20
15705;DHT22;7952;48.396;12.806;2023-09-08T10:22:42;28.20;43.20
15705;DHT22;7952;48.396;12.806;2023-09-08T10:25:09;28.30;43.20
15705;DHT22;7952;48.396;12.806;2023-09-08T10:27:36;28.30;43.20
15705;DHT22;7952;48.396;12.806;2023-09-08T10:30:04;28.30;43.20
15705;DHT22;7952;48.396;12.806;2023-09-08T10:32:32;28.40;43.10
15705;DHT22;7952;48.396;12.806;2023-09-08T10:34:59;28.40;43.10
15705;DHT22;7952;48.396;12.806;2023-09-08T10:37:26;28.40;43.10
15705;DHT22;7952;48.396;12.806;2023-09-08T10:39:56;28.40;43.30
15705;DHT22;7952;48.396;12.806;2023-09-08T10:42:26;28.40;43.10
15705;DHT22;7952;48.396;12.806;2023-09-08T10:44:56;28.50;43.10
15705;DHT22;7952;48.396;12.806;2023-09-08T10:47:24;28.50;43.20
15705;DHT22;7952;48.396;12.806;2023-09-08T10:49:51;28.50;43.20
15705;DHT22;7952;48.396;12.806;2023-09-08T10:52:22;28.50;43.20
15705;DHT22;7952;48.396;12.806;2023-09-08T10:54:51;28.50;43.20
15705;DHT22;7952;48.396;12.806;2023-09-08T10:57:19;28.50;43.10
15705;DHT22;7952;48.396;12.806;2023-09-08T11:00:03;28.50;43.20
15705;DHT22;7952;48.396;12.806;2023-09-08T11:02:43;28.50;43.20
15705;DHT22;7952;48.396;12.806;2023-09-08T11:05:14;28.50;43.30
15705;DHT22;7952;48.396;12.806;2023-09-08T11:07:43;28.60;43.40
15705;DHT22;7952;48.396;12.806;2023-09-08T11:10:09;28.60;43.30
15705;DHT22;7952;48.396;12.806;2023-09-08T11:12:36;28.60;43.20
15705;DHT22;7952;48.396;12.806;2023-09-08T11:15:04;28.60;43.30
15705;DHT22;7952;48.396;12.806;2023-09-08T11:17:32;28.60;43.30
15705;DHT22;7952;48.396;12.806;2023-09-08T11:20:00;28.50;43.30
15705;DHT22;7952;48.396;12.806;2023-09-08T11:22:26;28.50;43.30
15705;DHT22;7952;48.396;12.806;2023-09-08T11:24:56;28.40;43.40
15705;DHT22;7952;48.396;12.806;2023-09-08T11:27:25;28.40;43.50
15705;DHT22;7952;48.396;12.806;2023-09-08T11:29:52;28.30;43.60
15705;DHT22;7952;48.396;12.806;2023-09-08T11:32:18;28.30;43.60
15705;DHT22;7952;48.396;12.806;2023-09-08T11:34:43;28.30;43.60
15705;DHT22;7952;48.396;12.806;2023-09-08T11:39:39;28.30;43.70
15705;DHT22;7952;48.396;12.806;2023-09-08T11:42:06;28.30;43.70
15705;DHT22;7952;48.396;12.806;2023-09-08T11:44:34;28.30;43.60
15705;DHT22;7952;48.396;12.806;2023-09-08T11:47:01;28.20;43.60
15705;DHT22;7952;48.396;12.806;2023-09-08T11:49:37;28.20;43.80
15705;DHT22;7952;48.396;12.806;2023-09-08T11:52:03;28.10;43.70
15705;DHT22;7952;48.396;12.806;2023-09-08T11:54:34;28.10;43.80
15705;DHT22;7952;48.396;12.806;2023-09-08T11:57:02;28.10;43.90
15705;DHT22;7952;48.396;12.806;2023-09-08T11:59:30;28.10;43.90
15705;DHT22;7952;48.396;12.806;2023-09-08T12:01:57;28.10;43.80
15705;DHT22;7952;48.396;12.806;2023-09-08T12:04:26;28.00;43.80
15705;DHT22;7952;48.396;12.806;2023-09-08T12:06:53;28.00;43.90
15705;DHT22;7952;48.396;12.806;2023-09-08T12:09:21;28.10;43.80
15705;DHT22;7952;48.396;12.806;2023-09-08T12:11:47;28.00;43.90
15705;DHT22;7952;48.396;12.806;2023-09-08T12:14:14;28.00;43.90
15705;DHT22;7952;48.396;12.806;2023-09-08T12:16:40;28.00;43.80
15705;DHT22;7952;48.396;12.806;2023-09-08T12:19:07;28.00;43.70
15705;DHT22;7952;48.396;12.806;2023-09-08T12:24:19;28.10;43.90
15705;DHT22;7952;48.396;12.806;2023-09-08T12:26:44;28.10;44.00
15705;DHT22;7952;48.396;12.806;2023-09-08T12:29:13;28.20;44.60
15705;DHT22;7952;48.396;12.806;2023-09-08T12:31:39;28.20;43.90
15705;DHT22;7952;48.396;12.806;2023-09-08T12:34:05;28.30;43.80
15705;DHT22;7952;48.396;12.806;2023-09-08T12:36:31;28.30;43.80
15705;DHT22;7952;48.396;12.806;2023-09-08T12:38:56;28.30;43.80
15705;DHT22;7952;48.396;12.806;2023-09-08T12:41:22;28.30;43.80
15705;DHT22;7952;48.396;12.806;2023-09-08T12:43:48;28.30;43.80
15705;DHT22;7952;48.396;12.806;2023-09-08T12:46:17;28.30;43.80
15705;DHT22;7952;48.396;12.806;2023-09-08T12:48:43;28.40;43.80
15705;DHT22;7952;48.396;12.806;2023-09-08T12:51:09;28.40;43.80
15705;DHT22;7952;48.396;12.806;2023-09-08T12:53:34;28.40;43.70
15705;DHT22;7952;48.396;12.806;2023-09-08T12:56:03;28.40;43.70
15705;DHT22;7952;48.396;12.806;2023-09-08T12:58:29;28.40;43.70
15705;DHT22;7952;48.396;12.806;2023-09-08T13:00:54;28.40;43.70
15705;DHT22;7952;48.396;12.806;2023-09-08T13:03:21;28.40;43.80
15705;DHT22;7952;48.396;12.806;2023-09-08T13:05:46;28.40;43.70
15705;DHT22;7952;48.396;12.806;2023-09-08T13:08:15;28.40;43.70
15705;DHT22;7952;48.396;12.806;2023-09-08T13:10:41;28.40;43.60
15705;DHT22;7952;48.396;12.806;2023-09-08T13:13:07;28.40;43.70
15705;DHT22;7952;48.396;12.806;2023-09-08T13:15:33;28.40;43.70
15705;DHT22;7952;48.396;12.806;2023-09-08T13:17:59;28.30;43.70
15705;DHT22;7952;48.396;12.806;2023-09-08T13:20:24;28.40;43.70
15705;DHT22;7952;48.396;12.806;2023-09-08T13:22:50;28.40;43.70
15705;DHT22;7952;48.396;12.806;2023-09-08T13:25:16;28.40;43.80
15705;DHT22;7952;48.396;12.806;2023-09-08T13:27:42;28.40;43.80
15705;DHT22;7952;48.396;12.806;2023-09-08T13:30:12;28.40;43.80
15705;DHT22;7952;48.396;12.806;2023-09-08T13:32:39;28.40;43.80
15705;DHT22;7952;48.396;12.806;2023-09-08T13:35:05;28.40;43.70
15705;DHT22;7952;48.396;12.806;2023-09-08T13:37:32;28.40;43.70
15705;DHT22;7952;48.396;12.806;2023-09-08T13:40:02;28.40;43.70
15705;DHT22;7952;48.396;12.806;2023-09-08T13:42:29;28.40;43.70
15705;DHT22;7952;48.396;12.806;2023-09-08T13:44:55;28.30;43.60
15705;DHT22;7952;48.396;12.806;2023-09-08T13:47:21;28.30;43.70
15705;DHT22;7952;48.396;12.806;2023-09-08T13:49:47;28.20;43.60
15705;DHT22;7952;48.396;12.806;2023-09-08T13:52:12;28.20;43.60
15705;DHT22;7952;48.396;12.806;2023-09-08T13:54:38;28.20;43.60
15705;DHT22;7952;48.396;12.806;2023-09-08T13:57:05;28.20;43.70
15705;DHT22;7952;48.396;12.806;2023-09-08T13:59:31;28.20;43.80
15705;DHT22;7952;48.396;12.806;2023-09-08T14:01:57;28.20;43.70
15705;DHT22;7952;48.396;12.806;2023-09-08T14:04:24;28.20;43.70
15705;DHT22;7952;48.396;12.806;2023-09-08T14:06:50;28.20;43.70
15705;DHT22;7952;48.396;12.806;2023-09-08T14:09:16;28.20;43.60
15705;DHT22;7952;48.396;12.806;2023-09-08T14:11:42;28.10;43.60
15705;DHT22;7952;48.396;12.806;2023-09-08T14:14:08;28.10;43.60
15705;DHT22;7952;48.396;12.806;2023-09-08T14:16:34;28.10;43.60
15705;DHT22;7952;48.396;12.806;2023-09-08T14:19:01;28.00;43.50
15705;DHT22;7952;48.396;12.806;2023-09-08T14:21:28;28.00;43.60
15705;DHT22;7952;48.396;12.806;2023-09-08T14:23:54;27.90;43.60
15705;DHT22;7952;48.396;12.806;2023-09-08T14:26:20;27.90;43.70
15705;DHT22;7952;48.396;12.806;2023-09-08T14:28:46;27.90;43.60
15705;DHT22;7952;48.396;12.806;2023-09-08T14:31:12;27.90;43.60
15705;DHT22;7952;48.396;12.806;2023-09-08T14:33:37;27.80;43.60
15705;DHT22;7952;48.396;12.806;2023-09-08T14:36:03;27.80;43.70
15705;DHT22;7952;48.396;12.806;2023-09-08T14:38:29;27.80;43.70
15705;DHT22;7952;48.396;12.806;2023-09-08T14:43:22;27.70;43.60
15705;DHT22;7952;48.396;12.806;2023-09-08T14:45:47;27.60;43.50
15705;DHT22;7952;48.396;12.806;2023-09-08T14:48:13;27.60;43.60
15705;DHT22;7952;48.396;12.806;2023-09-08T14:50:39;27.60;43.60
15705;DHT22;7952;48.396;12.806;2023-09-08T14:53:05;27.50;43.60
15705;DHT22;7952;48.396;12.806;2023-09-08T14:55:32;27.50;43.70
15705;DHT22;7952;48.396;12.806;2023-09-08T14:57:58;27.50;43.70
15705;DHT22;7952;48.396;12.806;2023-09-08T15:00:24;27.50;43.80
15705;DHT22;7952;48.396;12.806;2023-09-08T15:02:49;27.40;43.60
15705;DHT22;7952;48.396;12.806;2023-09-08T15:05:15;27.40;43.70
15705;DHT22;7952;48.396;12.806;2023-09-08T15:07:41;27.40;43.70
15705;DHT22;7952;48.396;12.806;2023-09-08T15:10:07;27.40;43.70
15705;DHT22;7952;48.396;12.806;2023-09-08T15:12:33;27.40;43.70
15705;DHT22;7952;48.396;12.806;2023-09-08T15:14:59;27.30;43.60
15705;DHT22;7952;48.396;12.806;2023-09-08T15:17:25;27.30;43.70
15705;DHT22;7952;48.396;12.806;2023-09-08T15:19:50;27.30;43.70
15705;DHT22;7952;48.396;12.806;2023-09-08T15:22:19;27.20;43.60
15705;DHT22;7952;48.396;12.806;2023-09-08T15:24:45;27.20;43.60
15705;DHT22;7952;48.396;12.806;2023-09-08T15:27:10;27.20;43.70
15705;DHT22;7952;48.396;12.806;2023-09-08T15:29:36;27.10;43.70
15705;DHT22;7952;48.396;12.806;2023-09-08T15:32:02;27.10;43.80
15705;DHT22;7952;48.396;12.806;2023-09-08T15:34:29;27.10;43.80
15705;DHT22;7952;48.396;12.806;2023-09-08T15:36:54;27.10;43.80
15705;DHT22;7952;48.396;12.806;2023-09-08T15:39:20;27.10;43.90
15705;DHT22;7952;48.396;12.806;2023-09-08T15:41:46;27.10;43.90